sensor_id;sensor_type;location;lat;lon;timestamp;temperature;humidity
5621;DHT22;2832;50.864;12.186;2023-03-04T00:01:03;6.60;99.90
5621;DHT22;2832;50.864;12.186;2023-03-04T00:03:31;6.70;99.90
5621;DHT22;2832;50.864;12.186;2023-03-04T00:05:59;6.70;99.90
5621;DHT22;2832;50.864;12.186;2023-03-04T00:08:26;6.70;99.90
5621;DHT22;2832;50.864;12.186;2023-03-04T00:10:55;6.70;99.90
5621;DHT22;2832;50.864;12.186;2023-03-04T00:13:24;6.70;99.90
5621;DHT22;2832;50.864;12.186;2023-03-04T00:15:53;6.70;99.90
5621;DHT22;2832;50.864;12.186;2023-03-04T00:18:21;6.80;99.90
5621;DHT22;2832;50.864;12.186;2023-03-04T00:20:49;6.80;99.90
5621;DHT22;2832;50.864;12.186;2023-03-04T00:23:17;6.80;99.90
5621;DHT22;2832;50.864;12.186;2023-03-04T00:25:44;6.80;99.90
5621;DHT22;2832;50.864;12.186;2023-03-04T00:28:12;6.80;99.90
5621;DHT22;2832;50.864;12.186;2023-03-04T00:30:42;6.80;99.90
5621;DHT22;2832;50.864;12.186;2023-03-04T00:33:09;6.80;99.90
5621;DHT22;2832;50.864;12.186;2023-03-04T00:35:39;6.80;99.90
5621;DHT22;2832;50.864;12.186;2023-03-04T00:38:07;6.80;99.90
5621;DHT22;2832;50.864;12.186;2023-03-04T00:40:35;6.80;99.90
5621;DHT22;2832;50.864;12.186;2023-03-04T03:42:07;6.40;99.90
5621;DHT22;2832;50.864;12.186;2023-03-04T03:44:35;6.40;99.90
5621;DHT22;2832;50.864;12.186;2023-03-04T03:47:03;6.50;99.90
5621;DHT22;2832;50.864;12.186;2023-03-04T03:49:30;6.40;99.90
5621;DHT22;2832;50.864;12.186;2023-03-04T03:51:58;6.40;99.90
5621;DHT22;2832;50.864;12.186;2023-03-04T03:54:29;6.40;99.90
5621;DHT22;2832;50.864;12.186;2023-03-04T03:57:08;6.40;99.90
5621;DHT22;2832;50.864;12.186;2023-03-04T03:59:36;6.40;99.90
5621;DHT22;2832;50.864;12.186;2023-03-04T04:02:04;6.40;99.90
5621;DHT22;2832;50.864;12.186;2023-03-04T04:04:32;6.40;99.90
5621;DHT22;2832;50.864;12.186;2023-03-04T04:07:00;6.30;99.90
5621;DHT22;2832;50.864;12.186;2023-03-04T04:09:31;6.30;99.90
5621;DHT22;2832;50.864;12.186;2023-03-04T04:12:00;6.30;99.90
5621;DHT22;2832;50.864;12.186;2023-03-04T04:14:31;6.30;99.90
5621;DHT22;2832;50.864;12.186;2023-03-04T04:16:59;6.20;99.90
5621;DHT22;2832;50.864;12.186;2023-03-04T04:19:28;6.30;99.90
5621;DHT22;2832;50.864;12.186;2023-03-04T04:21:55;6.20;99.90
5621;DHT22;2832;50.864;12.186;2023-03-04T04:24:24;6.30;99.90
5621;DHT22;2832;50.864;12.186;2023-03-04T04:26:52;6.30;99.90
5621;DHT22;2832;50.864;12.186;2023-03-04T04:29:20;6.20;99.90
5621;DHT22;2832;50.864;12.186;2023-03-04T04:31:50;6.30;99.90
5621;DHT22;2832;50.864;12.186;2023-03-04T04:34:18;6.20;99.90
5621;DHT22;2832;50.864;12.186;2023-03-04T04:36:47;6.20;99.90
5621;DHT22;2832;50.864;12.186;2023-03-04T04:39:14;6.20;99.90
5621;DHT22;2832;50.864;12.186;2023-03-04T04:41:43;6.20;99.90
5621;DHT22;2832;50.864;12.186;2023-03-04T04:44:12;6.20;99.90
5621;DHT22;2832;50.864;12.186;2023-03-04T04:46:41;6.20;99.90
5621;DHT22;2832;50.864;12.186;2023-03-04T04:49:11;6.30;99.90
5621;DHT22;2832;50.864;12.186;2023-03-04T04:51:42;6.30;99.90
5621;DHT22;2832;50.864;12.186;2023-03-04T04:54:14;6.30;99.90
5621;DHT22;2832;50.864;12.186;2023-03-04T04:56:44;6.30;99.90
5621;DHT22;2832;50.864;12.186;2023-03-04T04:59:12;6.20;99.90
5621;DHT22;2832;50.864;12.186;2023-03-04T05:01:42;6.20;99.90
5621;DHT22;2832;50.864;12.186;2023-03-04T05:04:21;6.20;99.90
5621;DHT22;2832;50.864;12.186;2023-03-04T05:06:52;6.20;99.90
5621;DHT22;2832;50.864;12.186;2023-03-04T05:09:21;6.20;99.90
5621;DHT22;2832;50.864;12.186;2023-03-04T05:11:49;6.30;99.90
5621;DHT22;2832;50.864;12.186;2023-03-04T05:14:17;6.30;99.90
5621;DHT22;2832;50.864;12.186;2023-03-04T05:16:45;6.30;99.90
5621;DHT22;2832;50.864;12.186;2023-03-04T05:19:13;6.20;99.90
5621;DHT22;2832;50.864;12.186;2023-03-04T05:21:42;6.20;99.90
5621;DHT22;2832;50.864;12.186;2023-03-04T05:24:10;6.20;99.90
5621;DHT22;2832;50.864;12.186;2023-03-04T05:26:37;6.30;99.90
5621;DHT22;2832;50.864;12.186;2023-03-04T05:29:05;6.30;99.90
5621;DHT22;2832;50.864;12.186;2023-03-04T05:31:33;6.30;99.90
5621;DHT22;2832;50.864;12.186;2023-03-04T05:34:01;6.30;99.90
5621;DHT22;2832;50.864;12.186;2023-03-04T05:36:29;6.30;99.90
5621;DHT22;2832;50.864;12.186;2023-03-04T05:39:00;6.20;99.90
5621;DHT22;2832;50.864;12.186;2023-03-04T05:41:27;6.20;99.90
5621;DHT22;2832;50.864;12.186;2023-03-04T07:44:12;6.10;99.90
5621;DHT22;2832;50.864;12.186;2023-03-04T07:46:40;6.10;99.90
5621;DHT22;2832;50.864;12.186;2023-03-04T07:49:09;6.00;99.90
5621;DHT22;2832;50.864;12.186;2023-03-04T07:51:37;6.10;99.90
5621;DHT22;2832;50.864;12.186;2023-03-04T07:54:05;6.10;99.90
5621;DHT22;2832;50.864;12.186;2023-03-04T07:56:33;6.10;99.90
5621;DHT22;2832;50.864;12.186;2023-03-04T07:59:01;6.10;99.90
5621;DHT22;2832;50.864;12.186;2023-03-04T08:01:32;6.10;99.90
5621;DHT22;2832;50.864;12.186;2023-03-04T08:04:05;6.10;99.90
5621;DHT22;2832;50.864;12.186;2023-03-04T08:43:36;6.10;99.90
5621;DHT22;2832;50.864;12.186;2023-03-04T08:46:04;6.10;99.90
5621;DHT22;2832;50.864;12.186;2023-03-04T08:48:32;6.10;99.90
5621;DHT22;2832;50.864;12.186;2023-03-04T08:51:00;6.10;99.90
5621;DHT22;2832;50.864;12.186;2023-03-04T08:53:28;6.00;99.90
5621;DHT22;2832;50.864;12.186;2023-03-04T08:55:56;6.10;99.90
5621;DHT22;2832;50.864;12.186;2023-03-04T08:58:24;6.10;99.90
5621;DHT22;2832;50.864;12.186;2023-03-04T09:00:53;6.00;99.90
5621;DHT22;2832;50.864;12.186;2023-03-04T09:03:21;6.10;99.90
5621;DHT22;2832;50.864;12.186;2023-03-04T09:05:49;6.10;99.90
5621;DHT22;2832;50.864;12.186;2023-03-04T09:08:17;6.10;99.90
5621;DHT22;2832;50.864;12.186;2023-03-04T09:10:45;6.10;99.90
5621;DHT22;2832;50.864;12.186;2023-03-04T09:13:13;6.10;99.90
5621;DHT22;2832;50.864;12.186;2023-03-04T09:15:43;6.00;99.90
5621;DHT22;2832;50.864;12.186;2023-03-04T09:18:15;6.00;99.90
5621;DHT22;2832;50.864;12.186;2023-03-04T09:20:43;6.00;99.90
5621;DHT22;2832;50.864;12.186;2023-03-04T09:23:13;6.00;99.90
5621;DHT22;2832;50.864;12.186;2023-03-04T09:25:44;6.00;99.90
5621;DHT22;2832;50.864;12.186;2023-03-04T09:28:14;6.10;99.90
5621;DHT22;2832;50.864;12.186;2023-03-04T09:30:43;6.10;99.90
5621;DHT22;2832;50.864;12.186;2023-03-04T09:33:14;6.10;99.90
5621;DHT22;2832;50.864;12.186;2023-03-04T09:35:45;6.00;99.90
5621;DHT22;2832;50.864;12.186;2023-03-04T09:38:18;6.00;99.90
5621;DHT22;2832;50.864;12.186;2023-03-04T09:40:50;6.00;99.90
5621;DHT22;2832;50.864;12.186;2023-03-04T09:43:38;6.00;99.90
5621;DHT22;2832;50.864;12.186;2023-03-04T09:46:12;6.00;99.90
5621;DHT22;2832;50.864;12.186;2023-03-04T09:48:46;6.10;99.90
5621;DHT22;2832;50.864;12.186;2023-03-04T09:51:21;6.10;99.90
5621;DHT22;2832;50.864;12.186;2023-03-04T09:54:04;6.10;99.90
5621;DHT22;2832;50.864;12.186;2023-03-04T09:56:34;6.10;99.90
5621;DHT22;2832;50.864;12.186;2023-03-04T09:59:10;6.00;99.90
5621;DHT22;2832;50.864;12.186;2023-03-04T10:01:43;6.10;99.90
5621;DHT22;2832;50.864;12.186;2023-03-04T10:04:17;6.10;99.90
5621;DHT22;2832;50.864;12.186;2023-03-04T10:06:47;6.10;99.90
5621;DHT22;2832;50.864;12.186;2023-03-04T10:09:21;6.10;99.90
5621;DHT22;2832;50.864;12.186;2023-03-04T10:11:58;6.10;99.90
5621;DHT22;2832;50.864;12.186;2023-03-04T10:14:43;6.20;99.90
5621;DHT22;2832;50.864;12.186;2023-03-04T10:17:23;6.20;99.90
5621;DHT22;2832;50.864;12.186;2023-03-04T10:20:00;6.20;99.90
5621;DHT22;2832;50.864;12.186;2023-03-04T10:22:34;6.20;99.90
5621;DHT22;2832;50.864;12.186;2023-03-04T10:25:17;6.30;99.90
5621;DHT22;2832;50.864;12.186;2023-03-04T10:27:50;6.20;99.90
5621;DHT22;2832;50.864;12.186;2023-03-04T10:30:37;6.10;99.90
5621;DHT22;2832;50.864;12.186;2023-03-04T10:33:14;6.20;99.90
5621;DHT22;2832;50.864;12.186;2023-03-04T10:35:52;6.20;99.90
5621;DHT22;2832;50.864;12.186;2023-03-04T10:38:24;6.20;99.90
5621;DHT22;2832;50.864;12.186;2023-03-04T10:40:52;6.20;99.90
5621;DHT22;2832;50.864;12.186;2023-03-04T10:43:21;6.20;99.90
5621;DHT22;2832;50.864;12.186;2023-03-04T10:45:54;6.20;99.90
5621;DHT22;2832;50.864;12.186;2023-03-04T10:48:27;6.20;99.90
5621;DHT22;2832;50.864;12.186;2023-03-04T10:51:11;6.20;99.90
5621;DHT22;2832;50.864;12.186;2023-03-04T10:53:40;6.20;99.90
5621;DHT22;2832;50.864;12.186;2023-03-04T10:56:30;6.20;99.90
5621;DHT22;2832;50.864;12.186;2023-03-04T10:59:32;6.30;99.90
5621;DHT22;2832;50.864;12.186;2023-03-04T11:02:15;6.30;99.90
5621;DHT22;2832;50.864;12.186;2023-03-04T11:04:50;6.30;99.90
5621;DHT22;2832;50.864;12.186;2023-03-04T11:07:21;6.20;99.90
5621;DHT22;2832;50.864;12.186;2023-03-04T11:09:50;6.20;99.90
5621;DHT22;2832;50.864;12.186;2023-03-04T11:12:20;6.20;99.90
5621;DHT22;2832;50.864;12.186;2023-03-04T11:14:50;6.20;99.90
5621;DHT22;2832;50.864;12.186;2023-03-04T11:17:22;6.20;99.90
5621;DHT22;2832;50.864;12.186;2023-03-04T11:19:55;6.20;99.90
5621;DHT22;2832;50.864;12.186;2023-03-04T11:22:29;6.20;99.90
5621;DHT22;2832;50.864;12.186;2023-03-04T11:25:02;6.20;99.90
5621;DHT22;2832;50.864;12.186;2023-03-04T11:27:45;6.20;99.90
5621;DHT22;2832;50.864;12.186;2023-03-04T11:33:16;6.30;99.90
5621;DHT22;2832;50.864;12.186;2023-03-04T11:35:55;6.20;99.90
5621;DHT22;2832;50.864;12.186;2023-03-04T11:38:32;6.20;99.90
5621;DHT22;2832;50.864;12.186;2023-03-04T11:41:05;6.20;99.90
5621;DHT22;2832;50.864;12.186;2023-03-04T11:43:37;6.20;99.90
5621;DHT22;2832;50.864;12.186;2023-03-04T11:46:28;6.20;99.90
5621;DHT22;2832;50.864;12.186;2023-03-04T11:49:08;6.20;99.90
5621;DHT22;2832;50.864;12.186;2023-03-04T11:51:44;6.20;99.90
5621;DHT22;2832;50.864;12.186;2023-03-04T11:54:26;6.20;99.90
5621;DHT22;2832;50.864;12.186;2023-03-04T11:57:02;6.30;99.90
5621;DHT22;2832;50.864;12.186;2023-03-04T11:59:59;6.30;99.90
5621;DHT22;2832;50.864;12.186;2023-03-04T12:02:36;6.30;99.90
5621;DHT22;2832;50.864;12.186;2023-03-04T12:05:20;6.30;99.90
5621;DHT22;2832;50.864;12.186;2023-03-04T12:11:06;6.40;99.90
5621;DHT22;2832;50.864;12.186;2023-03-04T12:14:07;6.30;99.90
5621;DHT22;2832;50.864;12.186;2023-03-04T12:16:55;6.40;99.90
5621;DHT22;2832;50.864;12.186;2023-03-04T12:19:41;6.40;99.90
5621;DHT22;2832;50.864;12.186;2023-03-04T12:22:27;6.40;99.90
5621;DHT22;2832;50.864;12.186;2023-03-04T12:25:17;6.40;99.90
5621;DHT22;2832;50.864;12.186;2023-03-04T12:27:56;6.40;99.90
5621;DHT22;2832;50.864;12.186;2023-03-04T12:30:37;6.50;99.90
5621;DHT22;2832;50.864;12.186;2023-03-04T12:33:18;6.50;99.90
5621;DHT22;2832;50.864;12.186;2023-03-04T12:36:03;6.50;99.90
5621;DHT22;2832;50.864;12.186;2023-03-04T12:38:52;6.50;99.90
5621;DHT22;2832;50.864;12.186;2023-03-04T12:41:33;6.50;99.90
5621;DHT22;2832;50.864;12.186;2023-03-04T12:44:13;6.50;99.90
5621;DHT22;2832;50.864;12.186;2023-03-04T12:47:04;6.50;99.90
5621;DHT22;2832;50.864;12.186;2023-03-04T12:49:45;6.50;99.90
5621;DHT22;2832;50.864;12.186;2023-03-04T12:52:21;6.50;99.90
5621;DHT22;2832;50.864;12.186;2023-03-04T12:54:52;6.60;99.90
5621;DHT22;2832;50.864;12.186;2023-03-04T12:57:24;6.60;99.90
5621;DHT22;2832;50.864;12.186;2023-03-04T12:59:58;6.50;99.90
5621;DHT22;2832;50.864;12.186;2023-03-04T13:02:39;6.50;99.90
5621;DHT22;2832;50.864;12.186;2023-03-04T13:05:39;6.60;99.90
5621;DHT22;2832;50.864;12.186;2023-03-04T13:08:16;6.60;99.90
5621;DHT22;2832;50.864;12.186;2023-03-04T13:10:50;6.60;99.90
5621;DHT22;2832;50.864;12.186;2023-03-04T13:13:37;6.60;99.90
5621;DHT22;2832;50.864;12.186;2023-03-04T13:16:29;6.70;99.90
5621;DHT22;2832;50.864;12.186;2023-03-04T13:18:58;6.60;99.90
5621;DHT22;2832;50.864;12.186;2023-03-04T13:21:31;6.50;99.90
5621;DHT22;2832;50.864;12.186;2023-03-04T13:30:40;6.60;99.90
5621;DHT22;2832;50.864;12.186;2023-03-04T13:33:44;6.60;99.90
5621;DHT22;2832;50.864;12.186;2023-03-04T13:39:23;6.60;99.90
5621;DHT22;2832;50.864;12.186;2023-03-04T13:41:54;6.60;99.90
5621;DHT22;2832;50.864;12.186;2023-03-04T13:47:42;6.60;99.90
5621;DHT22;2832;50.864;12.186;2023-03-04T13:50:38;6.60;99.90
5621;DHT22;2832;50.864;12.186;2023-03-04T13:53:43;6.60;99.90
5621;DHT22;2832;50.864;12.186;2023-03-04T13:56:26;6.60;99.90
5621;DHT22;2832;50.864;12.186;2023-03-04T13:59:21;6.70;99.90
5621;DHT22;2832;50.864;12.186;2023-03-04T14:01:55;6.70;99.90
5621;DHT22;2832;50.864;12.186;2023-03-04T14:04:29;6.70;99.90
5621;DHT22;2832;50.864;12.186;2023-03-04T14:06:59;6.70;99.90
5621;DHT22;2832;50.864;12.186;2023-03-04T14:09:30;6.80;99.90
5621;DHT22;2832;50.864;12.186;2023-03-04T14:12:00;6.80;99.90
5621;DHT22;2832;50.864;12.186;2023-03-04T14:14:41;6.80;99.90
5621;DHT22;2832;50.864;12.186;2023-03-04T14:17:17;6.80;99.90
5621;DHT22;2832;50.864;12.186;2023-03-04T14:19:50;6.90;99.90
5621;DHT22;2832;50.864;12.186;2023-03-04T14:22:24;6.90;99.90
5621;DHT22;2832;50.864;12.186;2023-03-04T14:25:02;6.90;99.90
5621;DHT22;2832;50.864;12.186;2023-03-04T14:27:34;6.90;99.90
5621;DHT22;2832;50.864;12.186;2023-03-04T14:30:07;6.80;99.90
5621;DHT22;2832;50.864;12.186;2023-03-04T14:32:36;6.90;99.90
5621;DHT22;2832;50.864;12.186;2023-03-04T14:35:18;7.00;99.90
5621;DHT22;2832;50.864;12.186;2023-03-04T14:37:55;7.00;99.90
5621;DHT22;2832;50.864;12.186;2023-03-04T14:40:27;7.00;99.90
5621;DHT22;2832;50.864;12.186;2023-03-04T14:43:00;7.00;99.90
5621;DHT22;2832;50.864;12.186;2023-03-04T14:45:30;7.00;99.90
5621;DHT22;2832;50.864;12.186;2023-03-04T15:43:34;7.00;99.90
5621;DHT22;2832;50.864;12.186;2023-03-04T15:46:21;7.00;99.90
5621;DHT22;2832;50.864;12.186;2023-03-04T15:48:49;7.00;99.90
5621;DHT22;2832;50.864;12.186;2023-03-04T15:51:19;7.00;99.90
5621;DHT22;2832;50.864;12.186;2023-03-04T15:53:49;7.00;99.90
5621;DHT22;2832;50.864;12.186;2023-03-04T15:56:19;7.00;99.90
5621;DHT22;2832;50.864;12.186;2023-03-04T15:58:53;7.00;99.90
5621;DHT22;2832;50.864;12.186;2023-03-04T16:01:21;6.90;99.90
5621;DHT22;2832;50.864;12.186;2023-03-04T16:03:50;6.90;99.90
5621;DHT22;2832;50.864;12.186;2023-03-04T16:06:19;6.90;99.90
5621;DHT22;2832;50.864;12.186;2023-03-04T16:08:49;6.90;99.90
5621;DHT22;2832;50.864;12.186;2023-03-04T16:11:19;7.00;99.90
5621;DHT22;2832;50.864;12.186;2023-03-04T16:13:48;7.00;99.90
5621;DHT22;2832;50.864;12.186;2023-03-04T16:16:17;7.00;99.90
5621;DHT22;2832;50.864;12.186;2023-03-04T16:18:45;7.10;99.90
5621;DHT22;2832;50.864;12.186;2023-03-04T16:21:15;7.10;99.90
5621;DHT22;2832;50.864;12.186;2023-03-04T16:23:46;7.20;99.90
5621;DHT22;2832;50.864;12.186;2023-03-04T16:26:22;7.20;99.90
5621;DHT22;2832;50.864;12.186;2023-03-04T16:28:52;7.20;99.90
5621;DHT22;2832;50.864;12.186;2023-03-04T16:31:21;7.10;99.90
5621;DHT22;2832;50.864;12.186;2023-03-04T16:33:49;7.10;99.90
5621;DHT22;2832;50.864;12.186;2023-03-04T16:36:19;7.20;99.90
5621;DHT22;2832;50.864;12.186;2023-03-04T16:38:49;7.10;99.90
5621;DHT22;2832;50.864;12.186;2023-03-04T16:41:21;7.20;99.90
5621;DHT22;2832;50.864;12.186;2023-03-04T16:43:57;7.10;99.90
5621;DHT22;2832;50.864;12.186;2023-03-04T16:46:26;7.20;99.90
5621;DHT22;2832;50.864;12.186;2023-03-04T16:48:56;7.20;99.90
5621;DHT22;2832;50.864;12.186;2023-03-04T16:51:24;7.20;99.90
5621;DHT22;2832;50.864;12.186;2023-03-04T16:53:54;7.20;99.90
5621;DHT22;2832;50.864;12.186;2023-03-04T16:56:23;7.20;99.90
5621;DHT22;2832;50.864;12.186;2023-03-04T16:58:51;7.10;99.90
5621;DHT22;2832;50.864;12.186;2023-03-04T17:01:21;7.20;99.90
5621;DHT22;2832;50.864;12.186;2023-03-04T17:03:51;7.20;99.90
5621;DHT22;2832;50.864;12.186;2023-03-04T17:06:22;7.20;99.90
5621;DHT22;2832;50.864;12.186;2023-03-04T17:08:59;7.10;99.90
5621;DHT22;2832;50.864;12.186;2023-03-04T17:11:28;7.20;99.90
5621;DHT22;2832;50.864;12.186;2023-03-04T17:13:56;7.10;99.90
5621;DHT22;2832;50.864;12.186;2023-03-04T17:16:24;7.10;99.90
5621;DHT22;2832;50.864;12.186;2023-03-04T17:18:53;7.10;99.90
5621;DHT22;2832;50.864;12.186;2023-03-04T17:21:26;7.20;99.90
5621;DHT22;2832;50.864;12.186;2023-03-04T17:23:55;7.20;99.90
5621;DHT22;2832;50.864;12.186;2023-03-04T17:26:23;7.20;99.90
5621;DHT22;2832;50.864;12.186;2023-03-04T17:28:50;7.20;99.90
5621;DHT22;2832;50.864;12.186;2023-03-04T17:31:19;7.20;99.90
5621;DHT22;2832;50.864;12.186;2023-03-04T17:33:49;7.20;99.90
5621;DHT22;2832;50.864;12.186;2023-03-04T17:36:18;7.20;99.90
5621;DHT22;2832;50.864;12.186;2023-03-04T17:38:47;7.20;99.90
5621;DHT22;2832;50.864;12.186;2023-03-04T17:41:17;7.20;99.90
5621;DHT22;2832;50.864;12.186;2023-03-04T17:43:46;7.20;99.90
5621;DHT22;2832;50.864;12.186;2023-03-04T17:46:17;7.10;99.90
5621;DHT22;2832;50.864;12.186;2023-03-04T17:48:45;7.20;99.90
5621;DHT22;2832;50.864;12.186;2023-03-04T17:51:14;7.10;99.90
5621;DHT22;2832;50.864;12.186;2023-03-04T17:53:43;7.10;99.90
5621;DHT22;2832;50.864;12.186;2023-03-04T17:56:11;7.20;99.90
5621;DHT22;2832;50.864;12.186;2023-03-04T17:58:39;7.20;99.90
5621;DHT22;2832;50.864;12.186;2023-03-04T18:01:15;7.20;99.90
5621;DHT22;2832;50.864;12.186;2023-03-04T18:03:44;7.20;99.90
5621;DHT22;2832;50.864;12.186;2023-03-04T18:06:12;7.20;99.90
5621;DHT22;2832;50.864;12.186;2023-03-04T18:08:40;7.30;99.90
5621;DHT22;2832;50.864;12.186;2023-03-04T18:11:09;7.30;99.90
5621;DHT22;2832;50.864;12.186;2023-03-04T18:13:38;7.30;99.90
5621;DHT22;2832;50.864;12.186;2023-03-04T18:16:06;7.30;99.90
5621;DHT22;2832;50.864;12.186;2023-03-04T18:18:36;7.40;99.90
5621;DHT22;2832;50.864;12.186;2023-03-04T18:21:06;7.40;99.90
5621;DHT22;2832;50.864;12.186;2023-03-04T18:23:34;7.40;99.90
5621;DHT22;2832;50.864;12.186;2023-03-04T18:26:02;7.40;99.90
5621;DHT22;2832;50.864;12.186;2023-03-04T18:28:32;7.40;99.90
5621;DHT22;2832;50.864;12.186;2023-03-04T18:30:59;7.40;99.90
5621;DHT22;2832;50.864;12.186;2023-03-04T18:33:28;7.40;99.90
5621;DHT22;2832;50.864;12.186;2023-03-04T18:35:57;7.40;99.90
5621;DHT22;2832;50.864;12.186;2023-03-04T18:38:26;7.40;99.90
5621;DHT22;2832;50.864;12.186;2023-03-04T18:40:57;7.40;99.90
5621;DHT22;2832;50.864;12.186;2023-03-04T18:43:25;7.30;99.90
5621;DHT22;2832;50.864;12.186;2023-03-04T18:46:06;7.30;99.90
5621;DHT22;2832;50.864;12.186;2023-03-04T18:48:40;7.40;99.90
5621;DHT22;2832;50.864;12.186;2023-03-04T18:51:11;7.40;99.90
5621;DHT22;2832;50.864;12.186;2023-03-04T18:53:39;7.40;99.90
5621;DHT22;2832;50.864;12.186;2023-03-04T18:56:10;7.40;99.90
5621;DHT22;2832;50.864;12.186;2023-03-04T18:58:40;7.40;99.90
5621;DHT22;2832;50.864;12.186;2023-03-04T19:01:13;7.40;99.90
5621;DHT22;2832;50.864;12.186;2023-03-04T19:03:42;7.30;99.90
5621;DHT22;2832;50.864;12.186;2023-03-04T19:06:11;7.30;99.90
5621;DHT22;2832;50.864;12.186;2023-03-04T19:08:39;7.20;99.90
5621;DHT22;2832;50.864;12.186;2023-03-04T19:11:06;7.30;99.90
5621;DHT22;2832;50.864;12.186;2023-03-04T19:13:39;7.30;99.90
5621;DHT22;2832;50.864;12.186;2023-03-04T19:16:26;7.20;99.90
5621;DHT22;2832;50.864;12.186;2023-03-04T19:19:02;7.30;99.90
5621;DHT22;2832;50.864;12.186;2023-03-04T19:21:30;7.30;99.90
5621;DHT22;2832;50.864;12.186;2023-03-04T19:23:57;7.30;99.90
5621;DHT22;2832;50.864;12.186;2023-03-04T19:26:25;7.20;99.90
5621;DHT22;2832;50.864;12.186;2023-03-04T19:28:53;7.20;99.90
5621;DHT22;2832;50.864;12.186;2023-03-04T19:31:22;7.30;99.90
5621;DHT22;2832;50.864;12.186;2023-03-04T19:33:50;7.20;99.90
5621;DHT22;2832;50.864;12.186;2023-03-04T19:36:19;7.20;99.90
5621;DHT22;2832;50.864;12.186;2023-03-04T19:38:47;7.30;99.90
5621;DHT22;2832;50.864;12.186;2023-03-04T19:41:16;7.30;99.90
5621;DHT22;2832;50.864;12.186;2023-03-04T19:43:44;7.30;99.90
5621;DHT22;2832;50.864;12.186;2023-03-04T19:46:13;7.30;99.90
5621;DHT22;2832;50.864;12.186;2023-03-04T21:24:39;7.30;99.90
5621;DHT22;2832;50.864;12.186;2023-03-04T21:30:17;7.40;99.90
5621;DHT22;2832;50.864;12.186;2023-03-04T22:09:49;7.20;99.90
5621;DHT22;2832;50.864;12.186;2023-03-04T22:12:19;7.20;99.90
5621;DHT22;2832;50.864;12.186;2023-03-04T22:14:47;7.20;99.90
5621;DHT22;2832;50.864;12.186;2023-03-04T22:17:15;7.20;99.90
5621;DHT22;2832;50.864;12.186;2023-03-04T22:19:43;7.30;99.90
5621;DHT22;2832;50.864;12.186;2023-03-04T22:22:11;7.30;99.90
5621;DHT22;2832;50.864;12.186;2023-03-04T22:24:43;7.30;99.90
5621;DHT22;2832;50.864;12.186;2023-03-04T22:27:12;7.40;99.90
5621;DHT22;2832;50.864;12.186;2023-03-04T22:29:41;7.40;99.90
5621;DHT22;2832;50.864;12.186;2023-03-04T22:32:08;7.40;99.90
5621;DHT22;2832;50.864;12.186;2023-03-04T22:34:37;7.40;99.90
5621;DHT22;2832;50.864;12.186;2023-03-04T22:37:05;7.40;99.90
5621;DHT22;2832;50.864;12.186;2023-03-04T22:39:33;7.40;99.90
5621;DHT22;2832;50.864;12.186;2023-03-04T22:42:01;7.40;99.90
5621;DHT22;2832;50.864;12.186;2023-03-04T22:44:30;7.40;99.90
5621;DHT22;2832;50.864;12.186;2023-03-04T22:47:01;7.40;99.90
5621;DHT22;2832;50.864;12.186;2023-03-04T22:49:28;7.50;99.90
5621;DHT22;2832;50.864;12.186;2023-03-04T22:51:57;7.40;99.90
5621;DHT22;2832;50.864;12.186;2023-03-04T22:54:24;7.40;99.90
5621;DHT22;2832;50.864;12.186;2023-03-04T22:56:54;7.40;99.90
5621;DHT22;2832;50.864;12.186;2023-03-04T22:59:22;7.40;99.90
5621;DHT22;2832;50.864;12.186;2023-03-04T23:01:52;7.40;99.90
5621;DHT22;2832;50.864;12.186;2023-03-04T23:04:20;7.40;99.90
5621;DHT22;2832;50.864;12.186;2023-03-04T23:06:48;7.40;99.90
